sensor_id;sensor_type;location;lat;lon;timestamp;P1;durP1;ratioP1;P2;durP2;ratioP2
7154;SDS011;3619;53.784;10.440;2023-03-18T00:02:22;1.50;;;1.50;;
7154;SDS011;3619;53.784;10.440;2023-03-18T00:04:49;1.73;;;1.73;;
7154;SDS011;3619;53.784;10.440;2023-03-18T00:07:18;1.63;;;1.63;;
7154;SDS011;3619;53.784;10.440;2023-03-18T00:09:45;1.50;;;1.50;;
7154;SDS011;3619;53.784;10.440;2023-03-18T00:12:11;1.70;;;1.70;;
7154;SDS011;3619;53.784;10.440;2023-03-18T00:14:39;1.67;;;1.67;;
7154;SDS011;3619;53.784;10.440;2023-03-18T00:17:06;1.73;;;1.73;;
7154;SDS011;3619;53.784;10.440;2023-03-18T00:19:33;1.63;;;1.63;;
7154;SDS011;3619;53.784;10.440;2023-03-18T00:22:00;1.30;;;1.30;;
7154;SDS011;3619;53.784;10.440;2023-03-18T00:24:29;1.57;;;1.57;;
7154;SDS011;3619;53.784;10.440;2023-03-18T00:26:56;1.43;;;1.43;;
7154;SDS011;3619;53.784;10.440;2023-03-18T00:29:24;1.80;;;1.80;;
7154;SDS011;3619;53.784;10.440;2023-03-18T00:31:51;1.60;;;1.60;;
7154;SDS011;3619;53.784;10.440;2023-03-18T00:34:20;1.87;;;1.87;;
7154;SDS011;3619;53.784;10.440;2023-03-18T00:36:47;1.80;;;1.80;;
7154;SDS011;3619;53.784;10.440;2023-03-18T00:39:20;1.70;;;1.70;;
7154;SDS011;3619;53.784;10.440;2023-03-18T00:41:51;1.70;;;1.70;;
7154;SDS011;3619;53.784;10.440;2023-03-18T00:44:20;1.80;;;1.80;;
7154;SDS011;3619;53.784;10.440;2023-03-18T00:46:47;1.97;;;1.87;;
7154;SDS011;3619;53.784;10.440;2023-03-18T00:49:14;1.60;;;1.60;;
7154;SDS011;3619;53.784;10.440;2023-03-18T00:51:41;1.70;;;1.70;;
7154;SDS011;3619;53.784;10.440;2023-03-18T00:54:09;1.47;;;1.47;;
7154;SDS011;3619;53.784;10.440;2023-03-18T00:56:37;1.57;;;1.57;;
7154;SDS011;3619;53.784;10.440;2023-03-18T00:59:07;1.73;;;1.73;;
7154;SDS011;3619;53.784;10.440;2023-03-18T01:01:34;1.70;;;1.70;;
7154;SDS011;3619;53.784;10.440;2023-03-18T01:04:03;1.50;;;1.50;;
7154;SDS011;3619;53.784;10.440;2023-03-18T01:06:31;1.50;;;1.50;;
7154;SDS011;3619;53.784;10.440;2023-03-18T01:08:59;1.60;;;1.60;;
7154;SDS011;3619;53.784;10.440;2023-03-18T01:11:26;1.70;;;1.70;;
7154;SDS011;3619;53.784;10.440;2023-03-18T01:13:54;1.77;;;1.77;;
7154;SDS011;3619;53.784;10.440;2023-03-18T01:16:22;1.50;;;1.50;;
7154;SDS011;3619;53.784;10.440;2023-03-18T01:18:50;1.50;;;1.50;;
7154;SDS011;3619;53.784;10.440;2023-03-18T01:21:18;1.50;;;1.50;;
7154;SDS011;3619;53.784;10.440;2023-03-18T01:23:46;1.67;;;1.67;;
7154;SDS011;3619;53.784;10.440;2023-03-18T01:26:13;1.50;;;1.50;;
7154;SDS011;3619;53.784;10.440;2023-03-18T01:28:40;1.57;;;1.57;;
7154;SDS011;3619;53.784;10.440;2023-03-18T01:31:07;1.67;;;1.67;;
7154;SDS011;3619;53.784;10.440;2023-03-18T01:33:35;1.80;;;1.80;;
7154;SDS011;3619;53.784;10.440;2023-03-18T01:36:03;2.00;;;1.90;;
7154;SDS011;3619;53.784;10.440;2023-03-18T01:38:30;1.67;;;1.67;;
7154;SDS011;3619;53.784;10.440;2023-03-18T01:40:57;1.60;;;1.60;;
7154;SDS011;3619;53.784;10.440;2023-03-18T01:43:26;1.70;;;1.70;;
7154;SDS011;3619;53.784;10.440;2023-03-18T01:45:55;2.07;;;1.97;;
7154;SDS011;3619;53.784;10.440;2023-03-18T01:48:24;1.60;;;1.60;;
7154;SDS011;3619;53.784;10.440;2023-03-18T01:50:54;1.70;;;1.70;;
7154;SDS011;3619;53.784;10.440;2023-03-18T01:53:25;1.70;;;1.70;;
7154;SDS011;3619;53.784;10.440;2023-03-18T01:55:56;2.00;;;1.90;;
7154;SDS011;3619;53.784;10.440;2023-03-18T01:58:26;1.70;;;1.70;;
7154;SDS011;3619;53.784;10.440;2023-03-18T02:00:57;2.10;;;2.00;;
7154;SDS011;3619;53.784;10.440;2023-03-18T02:03:29;2.23;;;2.13;;
7154;SDS011;3619;53.784;10.440;2023-03-18T02:06:01;2.03;;;1.93;;
7154;SDS011;3619;53.784;10.440;2023-03-18T02:08:28;2.30;;;2.20;;
7154;SDS011;3619;53.784;10.440;2023-03-18T02:10:55;2.07;;;1.97;;
7154;SDS011;3619;53.784;10.440;2023-03-18T02:13:22;1.80;;;1.80;;
7154;SDS011;3619;53.784;10.440;2023-03-18T02:15:53;1.97;;;1.90;;
7154;SDS011;3619;53.784;10.440;2023-03-18T02:18:24;2.10;;;2.00;;
7154;SDS011;3619;53.784;10.440;2023-03-18T02:20:58;1.70;;;1.70;;
7154;SDS011;3619;53.784;10.440;2023-03-18T02:23:37;1.80;;;1.80;;
7154;SDS011;3619;53.784;10.440;2023-03-18T02:26:12;1.70;;;1.70;;
7154;SDS011;3619;53.784;10.440;2023-03-18T02:28:47;1.80;;;1.80;;
7154;SDS011;3619;53.784;10.440;2023-03-18T02:31:15;2.17;;;2.07;;
7154;SDS011;3619;53.784;10.440;2023-03-18T02:33:43;2.33;;;2.23;;
7154;SDS011;3619;53.784;10.440;2023-03-18T02:36:14;2.37;;;2.27;;
7154;SDS011;3619;53.784;10.440;2023-03-18T02:38:45;2.10;;;2.00;;
7154;SDS011;3619;53.784;10.440;2023-03-18T02:41:13;1.70;;;1.70;;
7154;SDS011;3619;53.784;10.440;2023-03-18T02:43:41;2.10;;;2.00;;
7154;SDS011;3619;53.784;10.440;2023-03-18T02:46:16;1.73;;;1.73;;
7154;SDS011;3619;53.784;10.440;2023-03-18T02:48:55;1.80;;;1.80;;
7154;SDS011;3619;53.784;10.440;2023-03-18T02:51:23;2.10;;;2.00;;
7154;SDS011;3619;53.784;10.440;2023-03-18T02:53:50;1.73;;;1.73;;
7154;SDS011;3619;53.784;10.440;2023-03-18T02:56:20;1.97;;;1.90;;
7154;SDS011;3619;53.784;10.440;2023-03-18T02:58:47;1.93;;;1.87;;
7154;SDS011;3619;53.784;10.440;2023-03-18T03:01:16;1.93;;;1.87;;
7154;SDS011;3619;53.784;10.440;2023-03-18T03:03:43;2.07;;;1.97;;
7154;SDS011;3619;53.784;10.440;2023-03-18T03:06:11;2.27;;;2.17;;
7154;SDS011;3619;53.784;10.440;2023-03-18T03:08:38;2.27;;;2.17;;
7154;SDS011;3619;53.784;10.440;2023-03-18T03:11:07;2.30;;;2.20;;
7154;SDS011;3619;53.784;10.440;2023-03-18T03:13:35;1.93;;;1.90;;
7154;SDS011;3619;53.784;10.440;2023-03-18T03:16:04;2.43;;;2.33;;
7154;SDS011;3619;53.784;10.440;2023-03-18T03:18:33;2.27;;;2.17;;
7154;SDS011;3619;53.784;10.440;2023-03-18T03:21:02;2.60;;;2.50;;
7154;SDS011;3619;53.784;10.440;2023-03-18T03:23:30;2.10;;;2.00;;
7154;SDS011;3619;53.784;10.440;2023-03-18T03:25:57;2.53;;;2.43;;
7154;SDS011;3619;53.784;10.440;2023-03-18T03:28:25;2.90;;;2.80;;
7154;SDS011;3619;53.784;10.440;2023-03-18T03:30:53;2.40;;;2.30;;
7154;SDS011;3619;53.784;10.440;2023-03-18T03:33:20;2.20;;;2.10;;
7154;SDS011;3619;53.784;10.440;2023-03-18T03:35:49;2.43;;;2.33;;
7154;SDS011;3619;53.784;10.440;2023-03-18T03:38:16;2.10;;;2.00;;
7154;SDS011;3619;53.784;10.440;2023-03-18T03:40:43;2.47;;;2.37;;
7154;SDS011;3619;53.784;10.440;2023-03-18T03:43:13;2.73;;;2.63;;
7154;SDS011;3619;53.784;10.440;2023-03-18T03:45:40;2.43;;;2.33;;
7154;SDS011;3619;53.784;10.440;2023-03-18T03:48:08;2.27;;;2.17;;
7154;SDS011;3619;53.784;10.440;2023-03-18T03:50:35;2.57;;;2.47;;
7154;SDS011;3619;53.784;10.440;2023-03-18T03:53:03;2.90;;;2.80;;
7154;SDS011;3619;53.784;10.440;2023-03-18T03:55:30;2.53;;;2.43;;
7154;SDS011;3619;53.784;10.440;2023-03-18T03:57:57;2.73;;;2.63;;
7154;SDS011;3619;53.784;10.440;2023-03-18T04:00:25;2.33;;;2.23;;
7154;SDS011;3619;53.784;10.440;2023-03-18T04:02:53;2.97;;;2.87;;
7154;SDS011;3619;53.784;10.440;2023-03-18T04:05:21;2.80;;;2.70;;
7154;SDS011;3619;53.784;10.440;2023-03-18T04:07:50;2.80;;;2.70;;
7154;SDS011;3619;53.784;10.440;2023-03-18T04:10:19;2.50;;;2.40;;
7154;SDS011;3619;53.784;10.440;2023-03-18T04:12:46;2.77;;;2.67;;
7154;SDS011;3619;53.784;10.440;2023-03-18T04:15:15;2.67;;;2.57;;
7154;SDS011;3619;53.784;10.440;2023-03-18T04:17:43;3.13;;;3.03;;
7154;SDS011;3619;53.784;10.440;2023-03-18T04:20:11;3.37;;;3.27;;
7154;SDS011;3619;53.784;10.440;2023-03-18T04:22:39;3.23;;;3.13;;
7154;SDS011;3619;53.784;10.440;2023-03-18T04:25:06;3.00;;;2.90;;
7154;SDS011;3619;53.784;10.440;2023-03-18T04:27:36;3.17;;;3.07;;
7154;SDS011;3619;53.784;10.440;2023-03-18T04:30:04;2.53;;;2.43;;
7154;SDS011;3619;53.784;10.440;2023-03-18T04:32:32;2.80;;;2.70;;
7154;SDS011;3619;53.784;10.440;2023-03-18T04:34:59;2.43;;;2.33;;
7154;SDS011;3619;53.784;10.440;2023-03-18T04:37:27;3.13;;;3.03;;
7154;SDS011;3619;53.784;10.440;2023-03-18T04:39:54;2.73;;;2.63;;
7154;SDS011;3619;53.784;10.440;2023-03-18T04:42:22;3.40;;;3.30;;
7154;SDS011;3619;53.784;10.440;2023-03-18T04:44:50;2.90;;;2.80;;
7154;SDS011;3619;53.784;10.440;2023-03-18T04:47:17;3.33;;;3.23;;
7154;SDS011;3619;53.784;10.440;2023-03-18T04:49:44;3.23;;;3.13;;
7154;SDS011;3619;53.784;10.440;2023-03-18T04:52:11;3.10;;;3.00;;
7154;SDS011;3619;53.784;10.440;2023-03-18T04:54:38;3.13;;;3.03;;
7154;SDS011;3619;53.784;10.440;2023-03-18T04:57:05;3.10;;;3.00;;
7154;SDS011;3619;53.784;10.440;2023-03-18T04:59:32;2.90;;;2.80;;
7154;SDS011;3619;53.784;10.440;2023-03-18T05:02:00;2.70;;;2.60;;
7154;SDS011;3619;53.784;10.440;2023-03-18T05:04:29;3.17;;;3.07;;
7154;SDS011;3619;53.784;10.440;2023-03-18T05:06:56;2.97;;;2.87;;
7154;SDS011;3619;53.784;10.440;2023-03-18T05:09:23;3.10;;;3.00;;
7154;SDS011;3619;53.784;10.440;2023-03-18T05:11:50;2.70;;;2.60;;
7154;SDS011;3619;53.784;10.440;2023-03-18T05:14:17;3.00;;;2.90;;
7154;SDS011;3619;53.784;10.440;2023-03-18T05:16:44;2.77;;;2.67;;
7154;SDS011;3619;53.784;10.440;2023-03-18T05:19:12;2.60;;;2.50;;
7154;SDS011;3619;53.784;10.440;2023-03-18T05:21:39;2.70;;;2.60;;
7154;SDS011;3619;53.784;10.440;2023-03-18T05:24:08;3.20;;;3.10;;
7154;SDS011;3619;53.784;10.440;2023-03-18T05:26:35;3.07;;;2.97;;
7154;SDS011;3619;53.784;10.440;2023-03-18T05:29:02;3.27;;;3.17;;
7154;SDS011;3619;53.784;10.440;2023-03-18T05:31:29;2.80;;;2.70;;
7154;SDS011;3619;53.784;10.440;2023-03-18T05:33:56;3.03;;;2.93;;
7154;SDS011;3619;53.784;10.440;2023-03-18T05:36:25;3.63;;;3.53;;
7154;SDS011;3619;53.784;10.440;2023-03-18T05:38:53;3.73;;;3.63;;
7154;SDS011;3619;53.784;10.440;2023-03-18T05:41:21;2.60;;;2.50;;
7154;SDS011;3619;53.784;10.440;2023-03-18T05:43:48;2.70;;;2.60;;
7154;SDS011;3619;53.784;10.440;2023-03-18T05:46:15;2.80;;;2.70;;
7154;SDS011;3619;53.784;10.440;2023-03-18T05:48:42;3.13;;;3.03;;
7154;SDS011;3619;53.784;10.440;2023-03-18T05:51:09;2.87;;;2.77;;
7154;SDS011;3619;53.784;10.440;2023-03-18T05:53:40;3.13;;;3.03;;
7154;SDS011;3619;53.784;10.440;2023-03-18T05:56:07;2.63;;;2.53;;
7154;SDS011;3619;53.784;10.440;2023-03-18T05:58:34;3.17;;;3.07;;
7154;SDS011;3619;53.784;10.440;2023-03-18T06:01:02;2.93;;;2.83;;
7154;SDS011;3619;53.784;10.440;2023-03-18T06:03:29;3.27;;;3.17;;
7154;SDS011;3619;53.784;10.440;2023-03-18T06:05:58;2.77;;;2.67;;
7154;SDS011;3619;53.784;10.440;2023-03-18T06:08:25;2.80;;;2.70;;
7154;SDS011;3619;53.784;10.440;2023-03-18T06:10:53;2.80;;;2.70;;
7154;SDS011;3619;53.784;10.440;2023-03-18T06:13:20;2.90;;;2.80;;
7154;SDS011;3619;53.784;10.440;2023-03-18T06:15:49;3.10;;;3.00;;
7154;SDS011;3619;53.784;10.440;2023-03-18T06:18:21;2.80;;;2.70;;
7154;SDS011;3619;53.784;10.440;2023-03-18T06:20:48;2.63;;;2.53;;
7154;SDS011;3619;53.784;10.440;2023-03-18T06:23:15;2.53;;;2.43;;
7154;SDS011;3619;53.784;10.440;2023-03-18T06:25:42;2.90;;;2.80;;
7154;SDS011;3619;53.784;10.440;2023-03-18T06:28:11;2.97;;;2.87;;
7154;SDS011;3619;53.784;10.440;2023-03-18T06:30:38;2.87;;;2.77;;
7154;SDS011;3619;53.784;10.440;2023-03-18T06:33:05;3.30;;;3.20;;
7154;SDS011;3619;53.784;10.440;2023-03-18T06:35:32;3.03;;;2.93;;
7154;SDS011;3619;53.784;10.440;2023-03-18T06:37:59;2.30;;;2.20;;
7154;SDS011;3619;53.784;10.440;2023-03-18T06:40:26;2.63;;;2.53;;
7154;SDS011;3619;53.784;10.440;2023-03-18T06:42:54;2.73;;;2.63;;
7154;SDS011;3619;53.784;10.440;2023-03-18T06:45:22;2.80;;;2.70;;
7154;SDS011;3619;53.784;10.440;2023-03-18T06:47:49;2.67;;;2.57;;
7154;SDS011;3619;53.784;10.440;2023-03-18T06:50:16;2.83;;;2.73;;
7154;SDS011;3619;53.784;10.440;2023-03-18T06:52:44;3.07;;;2.97;;
7154;SDS011;3619;53.784;10.440;2023-03-18T06:55:12;2.80;;;2.70;;
7154;SDS011;3619;53.784;10.440;2023-03-18T06:57:39;2.87;;;2.77;;
7154;SDS011;3619;53.784;10.440;2023-03-18T07:00:06;2.80;;;2.70;;
7154;SDS011;3619;53.784;10.440;2023-03-18T07:02:38;2.80;;;2.70;;
7154;SDS011;3619;53.784;10.440;2023-03-18T07:05:06;3.03;;;2.93;;
7154;SDS011;3619;53.784;10.440;2023-03-18T07:07:34;2.97;;;2.87;;
7154;SDS011;3619;53.784;10.440;2023-03-18T07:10:01;2.80;;;2.70;;
7154;SDS011;3619;53.784;10.440;2023-03-18T07:12:29;2.83;;;2.73;;
7154;SDS011;3619;53.784;10.440;2023-03-18T07:14:58;2.70;;;2.60;;
7154;SDS011;3619;53.784;10.440;2023-03-18T07:17:25;2.40;;;2.30;;
7154;SDS011;3619;53.784;10.440;2023-03-18T07:19:54;3.23;;;3.13;;
7154;SDS011;3619;53.784;10.440;2023-03-18T07:22:22;2.77;;;2.67;;
7154;SDS011;3619;53.784;10.440;2023-03-18T07:24:51;2.80;;;2.70;;
7154;SDS011;3619;53.784;10.440;2023-03-18T07:27:18;3.27;;;3.17;;
7154;SDS011;3619;53.784;10.440;2023-03-18T07:29:46;2.70;;;2.60;;
7154;SDS011;3619;53.784;10.440;2023-03-18T07:32:13;2.87;;;2.77;;
7154;SDS011;3619;53.784;10.440;2023-03-18T07:34:40;2.90;;;2.80;;
7154;SDS011;3619;53.784;10.440;2023-03-18T07:37:08;2.63;;;2.53;;
7154;SDS011;3619;53.784;10.440;2023-03-18T07:39:35;2.67;;;2.57;;
7154;SDS011;3619;53.784;10.440;2023-03-18T07:42:03;2.73;;;2.63;;
7154;SDS011;3619;53.784;10.440;2023-03-18T07:44:31;2.83;;;2.73;;
7154;SDS011;3619;53.784;10.440;2023-03-18T07:46:57;2.63;;;2.53;;
7154;SDS011;3619;53.784;10.440;2023-03-18T07:49:24;2.50;;;2.40;;
7154;SDS011;3619;53.784;10.440;2023-03-18T07:51:52;2.03;;;1.93;;
7154;SDS011;3619;53.784;10.440;2023-03-18T07:54:20;2.27;;;2.17;;
7154;SDS011;3619;53.784;10.440;2023-03-18T07:56:48;2.10;;;2.00;;
7154;SDS011;3619;53.784;10.440;2023-03-18T07:59:17;2.30;;;2.20;;
7154;SDS011;3619;53.784;10.440;2023-03-18T08:01:45;2.20;;;2.10;;
7154;SDS011;3619;53.784;10.440;2023-03-18T08:04:13;2.50;;;2.40;;
7154;SDS011;3619;53.784;10.440;2023-03-18T08:06:40;2.53;;;2.43;;
7154;SDS011;3619;53.784;10.440;2023-03-18T08:09:10;2.43;;;2.33;;
7154;SDS011;3619;53.784;10.440;2023-03-18T08:11:38;2.50;;;2.40;;
7154;SDS011;3619;53.784;10.440;2023-03-18T08:14:05;2.50;;;2.40;;
7154;SDS011;3619;53.784;10.440;2023-03-18T08:16:32;2.50;;;2.40;;
7154;SDS011;3619;53.784;10.440;2023-03-18T08:18:59;2.47;;;2.37;;
7154;SDS011;3619;53.784;10.440;2023-03-18T08:21:26;2.27;;;2.17;;
7154;SDS011;3619;53.784;10.440;2023-03-18T08:23:53;2.13;;;2.03;;
7154;SDS011;3619;53.784;10.440;2023-03-18T08:26:23;2.00;;;1.90;;
7154;SDS011;3619;53.784;10.440;2023-03-18T08:28:51;2.33;;;2.23;;
7154;SDS011;3619;53.784;10.440;2023-03-18T08:31:22;2.13;;;2.03;;
7154;SDS011;3619;53.784;10.440;2023-03-18T08:33:48;2.07;;;1.97;;
7154;SDS011;3619;53.784;10.440;2023-03-18T08:36:18;2.33;;;2.23;;
7154;SDS011;3619;53.784;10.440;2023-03-18T08:38:47;2.37;;;2.27;;
7154;SDS011;3619;53.784;10.440;2023-03-18T08:41:14;2.60;;;2.50;;
7154;SDS011;3619;53.784;10.440;2023-03-18T08:43:41;2.40;;;2.30;;
7154;SDS011;3619;53.784;10.440;2023-03-18T08:46:10;2.13;;;2.03;;
7154;SDS011;3619;53.784;10.440;2023-03-18T08:48:37;2.43;;;2.33;;
7154;SDS011;3619;53.784;10.440;2023-03-18T08:51:05;2.10;;;2.00;;
7154;SDS011;3619;53.784;10.440;2023-03-18T08:53:33;2.10;;;2.00;;
7154;SDS011;3619;53.784;10.440;2023-03-18T08:56:01;2.37;;;2.27;;
7154;SDS011;3619;53.784;10.440;2023-03-18T08:58:29;2.47;;;2.37;;
7154;SDS011;3619;53.784;10.440;2023-03-18T09:00:57;2.20;;;2.10;;
7154;SDS011;3619;53.784;10.440;2023-03-18T09:03:26;2.17;;;2.07;;
7154;SDS011;3619;53.784;10.440;2023-03-18T09:05:52;2.23;;;2.13;;
7154;SDS011;3619;53.784;10.440;2023-03-18T09:08:20;2.33;;;2.23;;
7154;SDS011;3619;53.784;10.440;2023-03-18T09:10:49;2.50;;;2.40;;
7154;SDS011;3619;53.784;10.440;2023-03-18T09:13:17;2.30;;;2.20;;
7154;SDS011;3619;53.784;10.440;2023-03-18T09:15:44;2.23;;;2.13;;
7154;SDS011;3619;53.784;10.440;2023-03-18T09:18:11;2.10;;;2.00;;
7154;SDS011;3619;53.784;10.440;2023-03-18T09:20:40;2.17;;;2.07;;
7154;SDS011;3619;53.784;10.440;2023-03-18T09:23:08;2.33;;;2.23;;
7154;SDS011;3619;53.784;10.440;2023-03-18T09:25:36;2.30;;;2.20;;
7154;SDS011;3619;53.784;10.440;2023-03-18T09:28:03;2.23;;;2.13;;
7154;SDS011;3619;53.784;10.440;2023-03-18T09:30:30;2.17;;;2.07;;
7154;SDS011;3619;53.784;10.440;2023-03-18T09:32:57;2.03;;;1.93;;
7154;SDS011;3619;53.784;10.440;2023-03-18T09:35:24;2.20;;;2.10;;
7154;SDS011;3619;53.784;10.440;2023-03-18T09:37:54;2.53;;;2.43;;
7154;SDS011;3619;53.784;10.440;2023-03-18T09:40:24;2.10;;;2.00;;
7154;SDS011;3619;53.784;10.440;2023-03-18T09:43:12;1.93;;;1.87;;
7154;SDS011;3619;53.784;10.440;2023-03-18T09:45:52;1.73;;;1.73;;
7154;SDS011;3619;53.784;10.440;2023-03-18T09:48:30;2.00;;;1.90;;
7154;SDS011;3619;53.784;10.440;2023-03-18T09:51:12;2.03;;;1.93;;
7154;SDS011;3619;53.784;10.440;2023-03-18T09:53:51;1.80;;;1.80;;
7154;SDS011;3619;53.784;10.440;2023-03-18T09:56:24;2.40;;;2.30;;
7154;SDS011;3619;53.784;10.440;2023-03-18T09:58:55;2.13;;;2.03;;
7154;SDS011;3619;53.784;10.440;2023-03-18T10:01:27;2.10;;;2.00;;
7154;SDS011;3619;53.784;10.440;2023-03-18T10:03:58;2.37;;;2.27;;
7154;SDS011;3619;53.784;10.440;2023-03-18T10:06:31;2.13;;;2.03;;
7154;SDS011;3619;53.784;10.440;2023-03-18T10:09:05;2.47;;;2.37;;
7154;SDS011;3619;53.784;10.440;2023-03-18T10:11:40;2.50;;;2.40;;
7154;SDS011;3619;53.784;10.440;2023-03-18T10:14:14;2.63;;;2.53;;
7154;SDS011;3619;53.784;10.440;2023-03-18T10:16:52;2.33;;;2.23;;
7154;SDS011;3619;53.784;10.440;2023-03-18T10:19:24;1.80;;;1.80;;
7154;SDS011;3619;53.784;10.440;2023-03-18T10:21:54;2.00;;;1.90;;
7154;SDS011;3619;53.784;10.440;2023-03-18T10:24:38;2.00;;;1.90;;
7154;SDS011;3619;53.784;10.440;2023-03-18T10:27:13;1.93;;;1.87;;
7154;SDS011;3619;53.784;10.440;2023-03-18T10:29:46;2.00;;;1.90;;
7154;SDS011;3619;53.784;10.440;2023-03-18T10:32:25;1.97;;;1.90;;
7154;SDS011;3619;53.784;10.440;2023-03-18T10:35:01;1.80;;;1.80;;
7154;SDS011;3619;53.784;10.440;2023-03-18T10:37:45;2.03;;;1.93;;
7154;SDS011;3619;53.784;10.440;2023-03-18T10:40:20;2.30;;;2.20;;
7154;SDS011;3619;53.784;10.440;2023-03-18T10:42:49;2.07;;;1.97;;
7154;SDS011;3619;53.784;10.440;2023-03-18T10:45:21;2.40;;;2.30;;
7154;SDS011;3619;53.784;10.440;2023-03-18T10:47:51;2.07;;;1.97;;
7154;SDS011;3619;53.784;10.440;2023-03-18T10:50:24;2.20;;;2.10;;
7154;SDS011;3619;53.784;10.440;2023-03-18T10:52:57;2.13;;;2.03;;
7154;SDS011;3619;53.784;10.440;2023-03-18T10:55:31;2.07;;;1.97;;
7154;SDS011;3619;53.784;10.440;2023-03-18T10:58:09;1.80;;;1.80;;
7154;SDS011;3619;53.784;10.440;2023-03-18T11:00:41;1.70;;;1.70;;
7154;SDS011;3619;53.784;10.440;2023-03-18T11:03:11;1.83;;;1.80;;
7154;SDS011;3619;53.784;10.440;2023-03-18T11:05:51;2.67;;;2.57;;
7154;SDS011;3619;53.784;10.440;2023-03-18T11:08:27;1.77;;;1.77;;
7154;SDS011;3619;53.784;10.440;2023-03-18T11:11:00;1.63;;;1.63;;
7154;SDS011;3619;53.784;10.440;2023-03-18T11:13:47;1.50;;;1.50;;
7154;SDS011;3619;53.784;10.440;2023-03-18T11:16:20;1.70;;;1.70;;
7154;SDS011;3619;53.784;10.440;2023-03-18T11:18:54;1.73;;;1.73;;
7154;SDS011;3619;53.784;10.440;2023-03-18T11:21:22;1.60;;;1.60;;
7154;SDS011;3619;53.784;10.440;2023-03-18T11:23:56;1.80;;;1.80;;
7154;SDS011;3619;53.784;10.440;2023-03-18T11:29:22;1.60;;;1.60;;
7154;SDS011;3619;53.784;10.440;2023-03-18T11:31:54;1.50;;;1.50;;
7154;SDS011;3619;53.784;10.440;2023-03-18T11:34:23;1.40;;;1.40;;
7154;SDS011;3619;53.784;10.440;2023-03-18T11:36:51;1.53;;;1.53;;
7154;SDS011;3619;53.784;10.440;2023-03-18T11:39:21;1.73;;;1.73;;
7154;SDS011;3619;53.784;10.440;2023-03-18T11:41:50;1.50;;;1.50;;
7154;SDS011;3619;53.784;10.440;2023-03-18T11:44:22;1.40;;;1.40;;
7154;SDS011;3619;53.784;10.440;2023-03-18T11:46:54;1.37;;;1.37;;
7154;SDS011;3619;53.784;10.440;2023-03-18T11:49:28;1.30;;;1.30;;
7154;SDS011;3619;53.784;10.440;2023-03-18T11:52:13;1.37;;;1.37;;
7154;SDS011;3619;53.784;10.440;2023-03-18T11:55:11;1.40;;;1.40;;
7154;SDS011;3619;53.784;10.440;2023-03-18T11:57:50;1.40;;;1.40;;
7154;SDS011;3619;53.784;10.440;2023-03-18T12:00:37;1.40;;;1.40;;
7154;SDS011;3619;53.784;10.440;2023-03-18T12:03:46;1.20;;;1.20;;
7154;SDS011;3619;53.784;10.440;2023-03-18T12:06:32;1.40;;;1.40;;
7154;SDS011;3619;53.784;10.440;2023-03-18T12:09:08;1.33;;;1.33;;
7154;SDS011;3619;53.784;10.440;2023-03-18T12:11:49;1.10;;;1.10;;
7154;SDS011;3619;53.784;10.440;2023-03-18T12:14:35;1.30;;;1.30;;
7154;SDS011;3619;53.784;10.440;2023-03-18T12:17:18;1.10;;;1.10;;
7154;SDS011;3619;53.784;10.440;2023-03-18T12:20:11;1.30;;;1.30;;
7154;SDS011;3619;53.784;10.440;2023-03-18T12:23:13;1.30;;;1.30;;
7154;SDS011;3619;53.784;10.440;2023-03-18T12:26:10;1.43;;;1.43;;
7154;SDS011;3619;53.784;10.440;2023-03-18T12:28:44;1.60;;;1.60;;
7154;SDS011;3619;53.784;10.440;2023-03-18T12:31:23;1.20;;;1.20;;
7154;SDS011;3619;53.784;10.440;2023-03-18T12:34:01;1.40;;;1.40;;
7154;SDS011;3619;53.784;10.440;2023-03-18T12:36:36;1.30;;;1.30;;
7154;SDS011;3619;53.784;10.440;2023-03-18T12:42:27;1.93;;;1.83;;
7154;SDS011;3619;53.784;10.440;2023-03-18T12:45:07;1.43;;;1.43;;
7154;SDS011;3619;53.784;10.440;2023-03-18T12:47:37;1.50;;;1.50;;
7154;SDS011;3619;53.784;10.440;2023-03-18T12:50:13;1.20;;;1.20;;
7154;SDS011;3619;53.784;10.440;2023-03-18T12:52:45;1.23;;;1.23;;
7154;SDS011;3619;53.784;10.440;2023-03-18T12:55:19;1.27;;;1.27;;
7154;SDS011;3619;53.784;10.440;2023-03-18T12:57:52;1.40;;;1.40;;
7154;SDS011;3619;53.784;10.440;2023-03-18T13:00:28;1.50;;;1.50;;
7154;SDS011;3619;53.784;10.440;2023-03-18T13:03:19;1.10;;;1.10;;
7154;SDS011;3619;53.784;10.440;2023-03-18T13:05:59;1.30;;;1.30;;
7154;SDS011;3619;53.784;10.440;2023-03-18T13:08:48;1.70;;;1.70;;
7154;SDS011;3619;53.784;10.440;2023-03-18T13:11:27;1.40;;;1.40;;
7154;SDS011;3619;53.784;10.440;2023-03-18T13:14:04;1.40;;;1.40;;
7154;SDS011;3619;53.784;10.440;2023-03-18T13:16:38;1.60;;;1.60;;
7154;SDS011;3619;53.784;10.440;2023-03-18T13:19:14;1.60;;;1.60;;
7154;SDS011;3619;53.784;10.440;2023-03-18T13:21:45;1.40;;;1.40;;
7154;SDS011;3619;53.784;10.440;2023-03-18T13:27:28;1.50;;;1.50;;
7154;SDS011;3619;53.784;10.440;2023-03-18T13:30:05;1.50;;;1.50;;
7154;SDS011;3619;53.784;10.440;2023-03-18T13:32:57;1.20;;;1.20;;
7154;SDS011;3619;53.784;10.440;2023-03-18T13:39:04;1.30;;;1.30;;
7154;SDS011;3619;53.784;10.440;2023-03-18T13:41:46;1.30;;;1.30;;
7154;SDS011;3619;53.784;10.440;2023-03-18T13:44:37;1.30;;;1.30;;
7154;SDS011;3619;53.784;10.440;2023-03-18T13:47:12;1.30;;;1.30;;
7154;SDS011;3619;53.784;10.440;2023-03-18T13:49:41;1.30;;;1.30;;
7154;SDS011;3619;53.784;10.440;2023-03-18T13:52:22;1.20;;;1.20;;
7154;SDS011;3619;53.784;10.440;2023-03-18T13:54:58;1.20;;;1.20;;
7154;SDS011;3619;53.784;10.440;2023-03-18T13:57:32;1.30;;;1.30;;
7154;SDS011;3619;53.784;10.440;2023-03-18T14:00:21;1.30;;;1.30;;
7154;SDS011;3619;53.784;10.440;2023-03-18T14:03:14;1.33;;;1.33;;
7154;SDS011;3619;53.784;10.440;2023-03-18T14:05:44;1.40;;;1.40;;
7154;SDS011;3619;53.784;10.440;2023-03-18T14:14:37;1.30;;;1.30;;
7154;SDS011;3619;53.784;10.440;2023-03-18T14:17:19;1.33;;;1.33;;
7154;SDS011;3619;53.784;10.440;2023-03-18T14:19:53;1.37;;;1.37;;
7154;SDS011;3619;53.784;10.440;2023-03-18T14:22:22;1.43;;;1.43;;
7154;SDS011;3619;53.784;10.440;2023-03-18T14:25:17;1.20;;;1.20;;
7154;SDS011;3619;53.784;10.440;2023-03-18T14:27:51;1.20;;;1.20;;
7154;SDS011;3619;53.784;10.440;2023-03-18T14:30:38;1.30;;;1.30;;
7154;SDS011;3619;53.784;10.440;2023-03-18T14:35:59;1.30;;;1.30;;
7154;SDS011;3619;53.784;10.440;2023-03-18T14:38:37;1.30;;;1.30;;
7154;SDS011;3619;53.784;10.440;2023-03-18T14:41:19;1.13;;;1.13;;
7154;SDS011;3619;53.784;10.440;2023-03-18T14:44:03;1.27;;;1.27;;
7154;SDS011;3619;53.784;10.440;2023-03-18T14:46:36;1.30;;;1.30;;
7154;SDS011;3619;53.784;10.440;2023-03-18T14:52:05;1.10;;;1.10;;
7154;SDS011;3619;53.784;10.440;2023-03-18T14:54:41;1.50;;;1.50;;
7154;SDS011;3619;53.784;10.440;2023-03-18T14:57:10;1.30;;;1.30;;
7154;SDS011;3619;53.784;10.440;2023-03-18T14:59:53;1.50;;;1.50;;
7154;SDS011;3619;53.784;10.440;2023-03-18T15:02:25;1.40;;;1.40;;
7154;SDS011;3619;53.784;10.440;2023-03-18T15:04:59;1.27;;;1.27;;
7154;SDS011;3619;53.784;10.440;2023-03-18T15:07:32;1.30;;;1.30;;
7154;SDS011;3619;53.784;10.440;2023-03-18T15:10:02;1.47;;;1.47;;
7154;SDS011;3619;53.784;10.440;2023-03-18T15:12:34;1.67;;;1.67;;
7154;SDS011;3619;53.784;10.440;2023-03-18T15:15:04;1.20;;;1.20;;
7154;SDS011;3619;53.784;10.440;2023-03-18T15:17:34;1.27;;;1.27;;
7154;SDS011;3619;53.784;10.440;2023-03-18T15:20:01;1.47;;;1.47;;
7154;SDS011;3619;53.784;10.440;2023-03-18T15:22:29;1.20;;;1.20;;
7154;SDS011;3619;53.784;10.440;2023-03-18T15:25:00;1.30;;;1.30;;
7154;SDS011;3619;53.784;10.440;2023-03-18T15:27:33;1.27;;;1.27;;
7154;SDS011;3619;53.784;10.440;2023-03-18T15:30:04;1.17;;;1.17;;
7154;SDS011;3619;53.784;10.440;2023-03-18T15:32:42;1.50;;;1.50;;
7154;SDS011;3619;53.784;10.440;2023-03-18T15:35:14;1.40;;;1.40;;
7154;SDS011;3619;53.784;10.440;2023-03-18T15:37:44;1.47;;;1.47;;
7154;SDS011;3619;53.784;10.440;2023-03-18T15:40:24;1.30;;;1.30;;
7154;SDS011;3619;53.784;10.440;2023-03-18T15:43:23;1.43;;;1.43;;
7154;SDS011;3619;53.784;10.440;2023-03-18T15:46:04;1.40;;;1.40;;
7154;SDS011;3619;53.784;10.440;2023-03-18T15:48:35;1.70;;;1.70;;
7154;SDS011;3619;53.784;10.440;2023-03-18T15:51:05;1.40;;;1.40;;